Terminal Aerodrome Forecast
Issued by NWS

Home | Current Version | Previous Version | Text Only | Print | Product List | Glossary On
Versions: 1 2 3 4 5 6 7 8 9 10 11 12 13
000
FTUS43 KOAX 291121
TAFBFF
TAF
KBFF 291121Z 2912/3012 32007KT P6SM VCSH OVC050
     FM291400 36011KT P6SM -SHRA BKN015
     FM291800 36013KT P6SM -RA VCTS BKN015CB OVC050
     FM300000 03008KT P6SM BKN025
     FM301000 VRB04KT 3SM BR BKN015=

USA.gov is the U.S. government's official web portal to all federal, state and local government web resources and services.